sensor_id;sensor_type;location;lat;lon;timestamp;temperature;humidity
38325;DHT22;24126;52.672;13.622;2023-12-20T00:01:08;12.10;84.10
38325;DHT22;24126;52.672;13.622;2023-12-20T00:03:35;12.10;84.10
38325;DHT22;24126;52.672;13.622;2023-12-20T00:06:02;12.10;84.20
38325;DHT22;24126;52.672;13.622;2023-12-20T00:08:30;12.10;84.10
38325;DHT22;24126;52.672;13.622;2023-12-20T00:10:57;12.10;84.20
38325;DHT22;24126;52.672;13.622;2023-12-20T00:13:24;12.10;84.20
38325;DHT22;24126;52.672;13.622;2023-12-20T00:15:51;12.10;84.20
38325;DHT22;24126;52.672;13.622;2023-12-20T00:18:18;12.10;84.20
38325;DHT22;24126;52.672;13.622;2023-12-20T00:20:45;12.10;84.20
38325;DHT22;24126;52.672;13.622;2023-12-20T00:23:12;12.10;84.20
38325;DHT22;24126;52.672;13.622;2023-12-20T00:25:39;12.10;84.20
38325;DHT22;24126;52.672;13.622;2023-12-20T00:28:06;12.10;84.20
38325;DHT22;24126;52.672;13.622;2023-12-20T00:30:34;12.10;84.20
38325;DHT22;24126;52.672;13.622;2023-12-20T00:33:02;12.10;84.20
38325;DHT22;24126;52.672;13.622;2023-12-20T00:35:29;12.10;84.20
38325;DHT22;24126;52.672;13.622;2023-12-20T00:37:56;12.10;84.20
38325;DHT22;24126;52.672;13.622;2023-12-20T00:40:23;12.10;84.20
38325;DHT22;24126;52.672;13.622;2023-12-20T00:42:50;12.10;84.20
38325;DHT22;24126;52.672;13.622;2023-12-20T00:45:17;12.10;84.20
38325;DHT22;24126;52.672;13.622;2023-12-20T00:47:44;12.10;84.20
38325;DHT22;24126;52.672;13.622;2023-12-20T00:50:11;12.10;84.30
38325;DHT22;24126;52.672;13.622;2023-12-20T00:52:38;12.10;84.30
38325;DHT22;24126;52.672;13.622;2023-12-20T00:55:06;12.10;84.30
38325;DHT22;24126;52.672;13.622;2023-12-20T00:57:33;12.10;84.20
38325;DHT22;24126;52.672;13.622;2023-12-20T01:00:00;12.10;84.20
38325;DHT22;24126;52.672;13.622;2023-12-20T01:02:28;12.10;84.20
38325;DHT22;24126;52.672;13.622;2023-12-20T01:04:55;12.10;84.30
38325;DHT22;24126;52.672;13.622;2023-12-20T01:07:22;12.10;84.30
38325;DHT22;24126;52.672;13.622;2023-12-20T01:09:49;12.10;84.30
38325;DHT22;24126;52.672;13.622;2023-12-20T01:12:16;12.00;84.30
38325;DHT22;24126;52.672;13.622;2023-12-20T01:14:43;12.10;84.40
38325;DHT22;24126;52.672;13.622;2023-12-20T01:17:10;12.10;84.40
38325;DHT22;24126;52.672;13.622;2023-12-20T01:19:37;12.10;84.30
38325;DHT22;24126;52.672;13.622;2023-12-20T01:22:04;12.10;84.40
38325;DHT22;24126;52.672;13.622;2023-12-20T01:24:31;12.10;85.00
38325;DHT22;24126;52.672;13.622;2023-12-20T01:26:58;12.10;84.30
38325;DHT22;24126;52.672;13.622;2023-12-20T01:29:26;12.10;84.40
38325;DHT22;24126;52.672;13.622;2023-12-20T01:31:53;12.10;84.40
38325;DHT22;24126;52.672;13.622;2023-12-20T01:34:20;12.00;84.40
38325;DHT22;24126;52.672;13.622;2023-12-20T01:36:47;12.10;84.40
38325;DHT22;24126;52.672;13.622;2023-12-20T01:39:14;12.10;84.50
38325;DHT22;24126;52.672;13.622;2023-12-20T01:41:41;12.10;84.50
38325;DHT22;24126;52.672;13.622;2023-12-20T01:44:08;12.00;84.40
38325;DHT22;24126;52.672;13.622;2023-12-20T01:46:35;12.10;84.50
38325;DHT22;24126;52.672;13.622;2023-12-20T01:49:02;12.10;84.50
38325;DHT22;24126;52.672;13.622;2023-12-20T01:51:29;12.10;84.50
38325;DHT22;24126;52.672;13.622;2023-12-20T01:53:56;12.00;84.50
38325;DHT22;24126;52.672;13.622;2023-12-20T01:56:25;12.10;84.50
38325;DHT22;24126;52.672;13.622;2023-12-20T01:58:52;12.00;84.40
38325;DHT22;24126;52.672;13.622;2023-12-20T02:01:20;12.10;84.40
38325;DHT22;24126;52.672;13.622;2023-12-20T02:03:47;12.10;84.30
38325;DHT22;24126;52.672;13.622;2023-12-20T02:06:14;12.10;84.40
38325;DHT22;24126;52.672;13.622;2023-12-20T02:08:41;12.10;84.30
38325;DHT22;24126;52.672;13.622;2023-12-20T02:11:08;12.10;84.30
38325;DHT22;24126;52.672;13.622;2023-12-20T02:13:35;12.10;84.30
38325;DHT22;24126;52.672;13.622;2023-12-20T02:16:02;12.00;84.20
38325;DHT22;24126;52.672;13.622;2023-12-20T02:18:30;12.10;84.30
38325;DHT22;24126;52.672;13.622;2023-12-20T02:20:56;12.10;84.20
38325;DHT22;24126;52.672;13.622;2023-12-20T02:23:24;12.00;84.20
38325;DHT22;24126;52.672;13.622;2023-12-20T02:25:51;12.00;84.10
38325;DHT22;24126;52.672;13.622;2023-12-20T02:28:18;12.00;84.10
38325;DHT22;24126;52.672;13.622;2023-12-20T02:30:45;12.00;84.20
38325;DHT22;24126;52.672;13.622;2023-12-20T02:33:12;12.00;84.10
38325;DHT22;24126;52.672;13.622;2023-12-20T02:35:41;12.00;84.00
38325;DHT22;24126;52.672;13.622;2023-12-20T02:38:08;12.00;84.00
38325;DHT22;24126;52.672;13.622;2023-12-20T02:40:35;12.00;83.90
38325;DHT22;24126;52.672;13.622;2023-12-20T02:43:02;12.00;83.90
38325;DHT22;24126;52.672;13.622;2023-12-20T02:45:29;12.00;83.80
38325;DHT22;24126;52.672;13.622;2023-12-20T02:47:56;11.90;83.70
38325;DHT22;24126;52.672;13.622;2023-12-20T02:50:23;11.90;83.80
38325;DHT22;24126;52.672;13.622;2023-12-20T02:52:50;11.90;83.90
38325;DHT22;24126;52.672;13.622;2023-12-20T02:55:17;11.90;83.90
38325;DHT22;24126;52.672;13.622;2023-12-20T02:57:44;11.90;83.90
38325;DHT22;24126;52.672;13.622;2023-12-20T03:00:12;11.90;83.90
38325;DHT22;24126;52.672;13.622;2023-12-20T03:02:39;11.90;83.90
38325;DHT22;24126;52.672;13.622;2023-12-20T03:05:06;11.90;83.80
38325;DHT22;24126;52.672;13.622;2023-12-20T03:07:33;11.90;83.80
38325;DHT22;24126;52.672;13.622;2023-12-20T03:10:00;11.90;83.80
38325;DHT22;24126;52.672;13.622;2023-12-20T03:12:27;11.90;83.80
38325;DHT22;24126;52.672;13.622;2023-12-20T03:14:54;11.90;83.80
38325;DHT22;24126;52.672;13.622;2023-12-20T03:17:21;11.90;83.70
38325;DHT22;24126;52.672;13.622;2023-12-20T03:19:48;11.90;83.70
38325;DHT22;24126;52.672;13.622;2023-12-20T03:22:15;11.90;83.60
38325;DHT22;24126;52.672;13.622;2023-12-20T03:24:42;11.80;83.50
38325;DHT22;24126;52.672;13.622;2023-12-20T03:27:10;11.80;83.50
38325;DHT22;24126;52.672;13.622;2023-12-20T03:29:36;11.80;83.50
38325;DHT22;24126;52.672;13.622;2023-12-20T03:32:04;11.80;83.50
38325;DHT22;24126;52.672;13.622;2023-12-20T03:34:31;11.70;83.40
38325;DHT22;24126;52.672;13.622;2023-12-20T03:36:58;11.70;83.40
38325;DHT22;24126;52.672;13.622;2023-12-20T03:39:25;11.70;83.40
38325;DHT22;24126;52.672;13.622;2023-12-20T03:41:52;11.70;83.40
38325;DHT22;24126;52.672;13.622;2023-12-20T03:44:19;11.70;83.40
38325;DHT22;24126;52.672;13.622;2023-12-20T03:46:46;11.70;83.30
38325;DHT22;24126;52.672;13.622;2023-12-20T03:49:15;11.60;83.20
38325;DHT22;24126;52.672;13.622;2023-12-20T03:51:41;11.70;83.30
38325;DHT22;24126;52.672;13.622;2023-12-20T03:54:08;11.60;83.10
38325;DHT22;24126;52.672;13.622;2023-12-20T03:56:36;11.60;83.10
38325;DHT22;24126;52.672;13.622;2023-12-20T03:59:02;11.50;83.00
38325;DHT22;24126;52.672;13.622;2023-12-20T04:01:30;11.50;83.10
38325;DHT22;24126;52.672;13.622;2023-12-20T04:03:56;11.50;83.10
38325;DHT22;24126;52.672;13.622;2023-12-20T04:06:23;11.50;83.00
38325;DHT22;24126;52.672;13.622;2023-12-20T04:08:50;11.50;82.90
38325;DHT22;24126;52.672;13.622;2023-12-20T04:11:17;11.50;83.00
38325;DHT22;24126;52.672;13.622;2023-12-20T04:13:44;11.40;82.90
38325;DHT22;24126;52.672;13.622;2023-12-20T04:16:11;11.40;82.80
38325;DHT22;24126;52.672;13.622;2023-12-20T04:18:38;11.40;82.80
38325;DHT22;24126;52.672;13.622;2023-12-20T04:21:05;11.30;83.50
38325;DHT22;24126;52.672;13.622;2023-12-20T04:23:33;11.40;82.80
38325;DHT22;24126;52.672;13.622;2023-12-20T04:26:00;11.30;82.90
38325;DHT22;24126;52.672;13.622;2023-12-20T04:28:27;11.30;82.80
38325;DHT22;24126;52.672;13.622;2023-12-20T04:30:56;11.30;82.80
38325;DHT22;24126;52.672;13.622;2023-12-20T04:33:23;11.30;82.70
38325;DHT22;24126;52.672;13.622;2023-12-20T04:35:50;11.30;82.80
38325;DHT22;24126;52.672;13.622;2023-12-20T04:38:17;11.30;82.70
38325;DHT22;24126;52.672;13.622;2023-12-20T04:40:44;11.20;82.60
38325;DHT22;24126;52.672;13.622;2023-12-20T04:43:11;11.20;82.70
38325;DHT22;24126;52.672;13.622;2023-12-20T04:45:38;11.20;82.70
38325;DHT22;24126;52.672;13.622;2023-12-20T04:48:06;11.20;82.80
38325;DHT22;24126;52.672;13.622;2023-12-20T04:50:33;11.20;82.80
38325;DHT22;24126;52.672;13.622;2023-12-20T04:53:00;11.10;82.60
38325;DHT22;24126;52.672;13.622;2023-12-20T04:55:27;11.10;82.50
38325;DHT22;24126;52.672;13.622;2023-12-20T04:57:54;11.10;82.60
38325;DHT22;24126;52.672;13.622;2023-12-20T05:00:22;11.10;82.70
38325;DHT22;24126;52.672;13.622;2023-12-20T05:02:49;11.10;82.70
38325;DHT22;24126;52.672;13.622;2023-12-20T05:05:16;11.10;82.60
38325;DHT22;24126;52.672;13.622;2023-12-20T05:07:43;11.10;82.60
38325;DHT22;24126;52.672;13.622;2023-12-20T05:10:11;11.10;82.70
38325;DHT22;24126;52.672;13.622;2023-12-20T05:12:38;11.10;82.70
38325;DHT22;24126;52.672;13.622;2023-12-20T05:15:05;11.10;82.60
38325;DHT22;24126;52.672;13.622;2023-12-20T05:17:33;11.00;82.50
38325;DHT22;24126;52.672;13.622;2023-12-20T05:20:00;11.00;82.60
38325;DHT22;24126;52.672;13.622;2023-12-20T05:22:28;11.00;82.70
38325;DHT22;24126;52.672;13.622;2023-12-20T05:24:55;11.00;82.60
38325;DHT22;24126;52.672;13.622;2023-12-20T05:27:22;11.00;82.50
38325;DHT22;24126;52.672;13.622;2023-12-20T05:29:49;11.00;82.60
38325;DHT22;24126;52.672;13.622;2023-12-20T05:32:17;11.00;82.60
38325;DHT22;24126;52.672;13.622;2023-12-20T05:34:44;11.00;82.60
38325;DHT22;24126;52.672;13.622;2023-12-20T05:37:11;11.00;82.60
38325;DHT22;24126;52.672;13.622;2023-12-20T05:39:38;11.00;82.50
38325;DHT22;24126;52.672;13.622;2023-12-20T05:42:05;11.00;82.40
38325;DHT22;24126;52.672;13.622;2023-12-20T05:44:32;11.00;82.10
38325;DHT22;24126;52.672;13.622;2023-12-20T05:46:59;11.00;82.20
38325;DHT22;24126;52.672;13.622;2023-12-20T05:49:26;11.00;82.10
38325;DHT22;24126;52.672;13.622;2023-12-20T05:51:53;10.90;81.90
38325;DHT22;24126;52.672;13.622;2023-12-20T05:54:20;10.90;81.80
38325;DHT22;24126;52.672;13.622;2023-12-20T05:56:47;10.90;81.80
38325;DHT22;24126;52.672;13.622;2023-12-20T05:59:14;10.80;81.70
38325;DHT22;24126;52.672;13.622;2023-12-20T06:01:41;10.70;81.60
38325;DHT22;24126;52.672;13.622;2023-12-20T06:04:08;10.70;81.70
38325;DHT22;24126;52.672;13.622;2023-12-20T06:06:40;10.70;81.70
38325;DHT22;24126;52.672;13.622;2023-12-20T06:09:07;10.60;81.60
38325;DHT22;24126;52.672;13.622;2023-12-20T06:11:34;10.60;81.70
38325;DHT22;24126;52.672;13.622;2023-12-20T06:14:01;10.60;81.80
38325;DHT22;24126;52.672;13.622;2023-12-20T06:16:28;10.50;81.90
38325;DHT22;24126;52.672;13.622;2023-12-20T06:18:55;10.50;81.90
38325;DHT22;24126;52.672;13.622;2023-12-20T06:21:22;10.60;82.10
38325;DHT22;24126;52.672;13.622;2023-12-20T06:23:49;10.60;81.90
38325;DHT22;24126;52.672;13.622;2023-12-20T06:26:16;10.60;82.00
38325;DHT22;24126;52.672;13.622;2023-12-20T06:28:43;10.50;81.90
38325;DHT22;24126;52.672;13.622;2023-12-20T06:31:10;10.60;81.80
38325;DHT22;24126;52.672;13.622;2023-12-20T06:33:37;10.60;82.30
38325;DHT22;24126;52.672;13.622;2023-12-20T06:36:06;10.50;81.60
38325;DHT22;24126;52.672;13.622;2023-12-20T06:38:33;10.50;81.40
38325;DHT22;24126;52.672;13.622;2023-12-20T06:41:05;10.50;81.50
38325;DHT22;24126;52.672;13.622;2023-12-20T06:43:32;10.50;81.50
38325;DHT22;24126;52.672;13.622;2023-12-20T06:46:03;10.40;81.60
38325;DHT22;24126;52.672;13.622;2023-12-20T06:48:29;10.40;81.60
38325;DHT22;24126;52.672;13.622;2023-12-20T06:50:59;10.40;81.70
38325;DHT22;24126;52.672;13.622;2023-12-20T06:53:26;10.40;81.80
38325;DHT22;24126;52.672;13.622;2023-12-20T06:55:53;10.40;81.70
38325;DHT22;24126;52.672;13.622;2023-12-20T06:58:22;10.40;81.60
38325;DHT22;24126;52.672;13.622;2023-12-20T07:00:49;10.40;81.60
38325;DHT22;24126;52.672;13.622;2023-12-20T07:03:17;10.40;81.60
38325;DHT22;24126;52.672;13.622;2023-12-20T07:05:44;10.30;81.60
38325;DHT22;24126;52.672;13.622;2023-12-20T07:08:11;10.30;81.60
38325;DHT22;24126;52.672;13.622;2023-12-20T07:10:40;10.30;81.80
38325;DHT22;24126;52.672;13.622;2023-12-20T07:13:07;10.30;81.80
38325;DHT22;24126;52.672;13.622;2023-12-20T07:15:34;10.30;81.80
38325;DHT22;24126;52.672;13.622;2023-12-20T07:18:02;10.40;81.80
38325;DHT22;24126;52.672;13.622;2023-12-20T07:20:29;10.40;81.80
38325;DHT22;24126;52.672;13.622;2023-12-20T07:22:57;10.40;81.80
38325;DHT22;24126;52.672;13.622;2023-12-20T07:25:23;10.40;81.80
38325;DHT22;24126;52.672;13.622;2023-12-20T07:27:50;10.40;81.80
38325;DHT22;24126;52.672;13.622;2023-12-20T07:30:18;10.40;81.90
38325;DHT22;24126;52.672;13.622;2023-12-20T07:32:45;10.40;81.90
38325;DHT22;24126;52.672;13.622;2023-12-20T07:35:13;10.40;81.90
38325;DHT22;24126;52.672;13.622;2023-12-20T07:37:40;10.40;81.90
38325;DHT22;24126;52.672;13.622;2023-12-20T07:40:07;10.40;81.90
38325;DHT22;24126;52.672;13.622;2023-12-20T07:42:34;10.40;81.90
38325;DHT22;24126;52.672;13.622;2023-12-20T07:45:01;10.40;81.90
38325;DHT22;24126;52.672;13.622;2023-12-20T07:47:28;10.40;82.00
38325;DHT22;24126;52.672;13.622;2023-12-20T07:49:55;10.40;81.80
38325;DHT22;24126;52.672;13.622;2023-12-20T07:52:22;10.40;82.00
38325;DHT22;24126;52.672;13.622;2023-12-20T07:54:49;10.40;82.10
38325;DHT22;24126;52.672;13.622;2023-12-20T07:57:16;10.40;82.00
38325;DHT22;24126;52.672;13.622;2023-12-20T07:59:44;10.40;82.00
38325;DHT22;24126;52.672;13.622;2023-12-20T08:02:11;10.40;82.00
38325;DHT22;24126;52.672;13.622;2023-12-20T08:04:38;10.40;81.90
38325;DHT22;24126;52.672;13.622;2023-12-20T08:07:05;10.40;82.00
38325;DHT22;24126;52.672;13.622;2023-12-20T08:09:32;10.40;82.00
38325;DHT22;24126;52.672;13.622;2023-12-20T08:11:59;10.40;82.00
38325;DHT22;24126;52.672;13.622;2023-12-20T08:14:26;10.40;82.10
38325;DHT22;24126;52.672;13.622;2023-12-20T08:16:53;10.50;81.90
38325;DHT22;24126;52.672;13.622;2023-12-20T08:19:20;10.40;81.80
38325;DHT22;24126;52.672;13.622;2023-12-20T08:21:47;10.50;81.90
38325;DHT22;24126;52.672;13.622;2023-12-20T08:24:14;10.50;81.90
38325;DHT22;24126;52.672;13.622;2023-12-20T08:26:41;10.40;81.80
38325;DHT22;24126;52.672;13.622;2023-12-20T08:29:08;10.40;81.80
38325;DHT22;24126;52.672;13.622;2023-12-20T08:31:35;10.50;81.80
38325;DHT22;24126;52.672;13.622;2023-12-20T08:34:02;10.50;81.80
38325;DHT22;24126;52.672;13.622;2023-12-20T08:36:29;10.50;81.80
38325;DHT22;24126;52.672;13.622;2023-12-20T08:38:56;10.50;81.90
38325;DHT22;24126;52.672;13.622;2023-12-20T08:41:23;10.50;81.80
38325;DHT22;24126;52.672;13.622;2023-12-20T08:43:50;10.50;81.80
38325;DHT22;24126;52.672;13.622;2023-12-20T08:46:17;10.50;81.70
38325;DHT22;24126;52.672;13.622;2023-12-20T08:48:44;10.50;81.60
38325;DHT22;24126;52.672;13.622;2023-12-20T08:51:12;10.60;81.60
38325;DHT22;24126;52.672;13.622;2023-12-20T08:53:39;10.50;81.50
38325;DHT22;24126;52.672;13.622;2023-12-20T08:56:07;10.60;81.60
38325;DHT22;24126;52.672;13.622;2023-12-20T08:58:34;10.60;81.60
38325;DHT22;24126;52.672;13.622;2023-12-20T09:01:01;10.60;81.70
38325;DHT22;24126;52.672;13.622;2023-12-20T09:03:28;10.70;81.60
38325;DHT22;24126;52.672;13.622;2023-12-20T09:05:56;10.70;81.50
38325;DHT22;24126;52.672;13.622;2023-12-20T09:08:23;10.80;81.40
38325;DHT22;24126;52.672;13.622;2023-12-20T09:10:50;10.80;81.20
38325;DHT22;24126;52.672;13.622;2023-12-20T09:13:17;10.90;81.20
38325;DHT22;24126;52.672;13.622;2023-12-20T09:15:44;10.90;81.10
38325;DHT22;24126;52.672;13.622;2023-12-20T09:18:11;10.80;81.10
38325;DHT22;24126;52.672;13.622;2023-12-20T09:20:38;10.80;81.20
38325;DHT22;24126;52.672;13.622;2023-12-20T09:23:05;10.80;81.00
38325;DHT22;24126;52.672;13.622;2023-12-20T09:25:32;10.90;81.10
38325;DHT22;24126;52.672;13.622;2023-12-20T09:27:59;10.90;81.00
38325;DHT22;24126;52.672;13.622;2023-12-20T09:30:26;10.90;80.70
38325;DHT22;24126;52.672;13.622;2023-12-20T09:32:54;10.90;80.80
38325;DHT22;24126;52.672;13.622;2023-12-20T09:35:21;10.90;80.70
38325;DHT22;24126;52.672;13.622;2023-12-20T09:37:48;10.90;80.80
38325;DHT22;24126;52.672;13.622;2023-12-20T09:40:16;10.90;80.80
38325;DHT22;24126;52.672;13.622;2023-12-20T09:42:48;10.90;80.80
38325;DHT22;24126;52.672;13.622;2023-12-20T09:45:18;10.90;80.80
38325;DHT22;24126;52.672;13.622;2023-12-20T09:47:46;10.90;80.80
38325;DHT22;24126;52.672;13.622;2023-12-20T09:50:13;10.90;80.80
38325;DHT22;24126;52.672;13.622;2023-12-20T09:52:41;10.90;80.70
38325;DHT22;24126;52.672;13.622;2023-12-20T09:55:08;10.90;80.60
38325;DHT22;24126;52.672;13.622;2023-12-20T09:57:35;10.90;80.70
38325;DHT22;24126;52.672;13.622;2023-12-20T10:00:02;11.00;80.80
38325;DHT22;24126;52.672;13.622;2023-12-20T10:02:38;10.90;80.60
38325;DHT22;24126;52.672;13.622;2023-12-20T10:05:09;11.00;80.70
38325;DHT22;24126;52.672;13.622;2023-12-20T10:07:42;11.00;80.60
38325;DHT22;24126;52.672;13.622;2023-12-20T10:10:09;11.00;80.60
38325;DHT22;24126;52.672;13.622;2023-12-20T10:12:37;11.00;80.50
38325;DHT22;24126;52.672;13.622;2023-12-20T10:15:05;11.00;80.60
38325;DHT22;24126;52.672;13.622;2023-12-20T10:17:32;11.10;80.60
38325;DHT22;24126;52.672;13.622;2023-12-20T10:19:59;11.10;80.30
38325;DHT22;24126;52.672;13.622;2023-12-20T10:22:26;11.10;80.20
38325;DHT22;24126;52.672;13.622;2023-12-20T10:24:56;11.10;81.10
38325;DHT22;24126;52.672;13.622;2023-12-20T10:27:23;11.10;80.50
38325;DHT22;24126;52.672;13.622;2023-12-20T10:29:50;11.20;80.70
38325;DHT22;24126;52.672;13.622;2023-12-20T10:32:26;11.20;80.90
38325;DHT22;24126;52.672;13.622;2023-12-20T10:34:54;11.30;80.70
38325;DHT22;24126;52.672;13.622;2023-12-20T10:37:21;11.40;80.30
38325;DHT22;24126;52.672;13.622;2023-12-20T10:39:53;11.40;80.10
38325;DHT22;24126;52.672;13.622;2023-12-20T10:42:22;11.40;80.10
38325;DHT22;24126;52.672;13.622;2023-12-20T10:44:49;11.40;79.90
38325;DHT22;24126;52.672;13.622;2023-12-20T10:47:17;11.30;79.90
38325;DHT22;24126;52.672;13.622;2023-12-20T10:49:44;11.30;79.80
38325;DHT22;24126;52.672;13.622;2023-12-20T10:52:12;11.40;79.60
38325;DHT22;24126;52.672;13.622;2023-12-20T10:54:39;11.40;79.70
38325;DHT22;24126;52.672;13.622;2023-12-20T10:57:07;11.40;79.70
38325;DHT22;24126;52.672;13.622;2023-12-20T10:59:35;11.40;79.70
38325;DHT22;24126;52.672;13.622;2023-12-20T11:02:03;11.40;79.60
38325;DHT22;24126;52.672;13.622;2023-12-20T11:04:41;11.40;79.60
38325;DHT22;24126;52.672;13.622;2023-12-20T11:07:21;11.40;79.50
38325;DHT22;24126;52.672;13.622;2023-12-20T11:10:03;11.40;79.60
38325;DHT22;24126;52.672;13.622;2023-12-20T11:12:37;11.50;79.60
38325;DHT22;24126;52.672;13.622;2023-12-20T11:15:06;11.40;79.70
38325;DHT22;24126;52.672;13.622;2023-12-20T11:17:33;11.40;79.70
38325;DHT22;24126;52.672;13.622;2023-12-20T11:22:30;11.40;79.70
38325;DHT22;24126;52.672;13.622;2023-12-20T11:25:02;11.30;79.70
38325;DHT22;24126;52.672;13.622;2023-12-20T11:27:30;11.30;79.70
38325;DHT22;24126;52.672;13.622;2023-12-20T11:29:58;11.30;79.50
38325;DHT22;24126;52.672;13.622;2023-12-20T11:34:54;11.30;79.90
38325;DHT22;24126;52.672;13.622;2023-12-20T11:37:22;11.30;79.60
38325;DHT22;24126;52.672;13.622;2023-12-20T11:39:55;11.40;79.60
38325;DHT22;24126;52.672;13.622;2023-12-20T11:42:22;11.30;80.30
38325;DHT22;24126;52.672;13.622;2023-12-20T11:44:49;11.40;79.80
38325;DHT22;24126;52.672;13.622;2023-12-20T11:47:16;11.30;79.60
38325;DHT22;24126;52.672;13.622;2023-12-20T11:49:47;11.30;79.70
38325;DHT22;24126;52.672;13.622;2023-12-20T11:52:15;11.30;79.60
38325;DHT22;24126;52.672;13.622;2023-12-20T11:54:42;11.30;79.60
38325;DHT22;24126;52.672;13.622;2023-12-20T11:57:09;11.30;79.60
38325;DHT22;24126;52.672;13.622;2023-12-20T11:59:36;11.30;79.80
38325;DHT22;24126;52.672;13.622;2023-12-20T12:02:03;11.30;79.90
38325;DHT22;24126;52.672;13.622;2023-12-20T12:04:30;11.30;79.90
38325;DHT22;24126;52.672;13.622;2023-12-20T12:06:57;11.30;80.00
38325;DHT22;24126;52.672;13.622;2023-12-20T12:09:24;11.30;79.90
38325;DHT22;24126;52.672;13.622;2023-12-20T12:11:51;11.30;79.90
38325;DHT22;24126;52.672;13.622;2023-12-20T12:14:18;11.30;79.90
38325;DHT22;24126;52.672;13.622;2023-12-20T12:16:46;11.30;79.90
38325;DHT22;24126;52.672;13.622;2023-12-20T12:19:24;11.30;79.80
38325;DHT22;24126;52.672;13.622;2023-12-20T12:22:04;11.30;79.80
38325;DHT22;24126;52.672;13.622;2023-12-20T12:24:33;11.30;79.90
38325;DHT22;24126;52.672;13.622;2023-12-20T12:27:00;11.20;79.80
38325;DHT22;24126;52.672;13.622;2023-12-20T12:29:27;11.20;79.80
38325;DHT22;24126;52.672;13.622;2023-12-20T12:31:54;11.20;79.80
38325;DHT22;24126;52.672;13.622;2023-12-20T12:34:21;11.20;80.00
38325;DHT22;24126;52.672;13.622;2023-12-20T12:36:48;11.20;80.10
38325;DHT22;24126;52.672;13.622;2023-12-20T12:39:17;11.20;80.30
38325;DHT22;24126;52.672;13.622;2023-12-20T12:41:44;11.10;80.40
38325;DHT22;24126;52.672;13.622;2023-12-20T12:44:11;11.10;80.60
38325;DHT22;24126;52.672;13.622;2023-12-20T12:46:38;11.10;80.70
38325;DHT22;24126;52.672;13.622;2023-12-20T12:49:05;11.10;80.60
38325;DHT22;24126;52.672;13.622;2023-12-20T12:51:32;11.10;80.60
38325;DHT22;24126;52.672;13.622;2023-12-20T12:53:59;11.10;80.70
38325;DHT22;24126;52.672;13.622;2023-12-20T12:56:26;11.20;81.50
38325;DHT22;24126;52.672;13.622;2023-12-20T12:58:53;11.10;80.70
38325;DHT22;24126;52.672;13.622;2023-12-20T13:01:20;11.10;80.80
38325;DHT22;24126;52.672;13.622;2023-12-20T13:03:47;11.10;80.70
38325;DHT22;24126;52.672;13.622;2023-12-20T13:06:14;11.10;80.80
38325;DHT22;24126;52.672;13.622;2023-12-20T13:08:41;11.10;80.80
38325;DHT22;24126;52.672;13.622;2023-12-20T13:11:08;11.10;80.90
38325;DHT22;24126;52.672;13.622;2023-12-20T13:13:35;11.00;80.90
38325;DHT22;24126;52.672;13.622;2023-12-20T13:16:02;11.00;80.70
38325;DHT22;24126;52.672;13.622;2023-12-20T13:18:29;11.00;80.60
38325;DHT22;24126;52.672;13.622;2023-12-20T13:20:56;10.90;80.50
38325;DHT22;24126;52.672;13.622;2023-12-20T13:23:23;10.80;80.50
38325;DHT22;24126;52.672;13.622;2023-12-20T13:25:50;10.80;80.70
38325;DHT22;24126;52.672;13.622;2023-12-20T13:28:17;10.70;80.80
38325;DHT22;24126;52.672;13.622;2023-12-20T13:30:44;10.70;80.90
38325;DHT22;24126;52.672;13.622;2023-12-20T13:33:11;10.70;80.80
38325;DHT22;24126;52.672;13.622;2023-12-20T13:35:38;10.70;80.80
38325;DHT22;24126;52.672;13.622;2023-12-20T13:38:06;10.70;81.50
38325;DHT22;24126;52.672;13.622;2023-12-20T13:40:33;10.70;80.80
38325;DHT22;24126;52.672;13.622;2023-12-20T13:43:00;10.70;81.50
38325;DHT22;24126;52.672;13.622;2023-12-20T13:45:28;10.70;80.90
38325;DHT22;24126;52.672;13.622;2023-12-20T13:47:55;10.60;81.00
38325;DHT22;24126;52.672;13.622;2023-12-20T13:50:22;10.60;81.10
38325;DHT22;24126;52.672;13.622;2023-12-20T13:52:49;10.70;81.30
38325;DHT22;24126;52.672;13.622;2023-12-20T13:55:16;10.70;81.20
38325;DHT22;24126;52.672;13.622;2023-12-20T13:57:46;10.70;81.10
38325;DHT22;24126;52.672;13.622;2023-12-20T14:00:14;10.70;81.00
38325;DHT22;24126;52.672;13.622;2023-12-20T14:02:41;10.70;81.00
38325;DHT22;24126;52.672;13.622;2023-12-20T14:05:09;10.70;80.80
38325;DHT22;24126;52.672;13.622;2023-12-20T14:07:36;10.70;80.70
38325;DHT22;24126;52.672;13.622;2023-12-20T14:10:03;10.70;80.60
38325;DHT22;24126;52.672;13.622;2023-12-20T14:12:31;10.70;80.60
38325;DHT22;24126;52.672;13.622;2023-12-20T14:15:02;10.70;80.50
38325;DHT22;24126;52.672;13.622;2023-12-20T14:17:29;10.70;80.50
38325;DHT22;24126;52.672;13.622;2023-12-20T14:19:57;10.60;80.30
38325;DHT22;24126;52.672;13.622;2023-12-20T14:22:24;10.60;80.30
38325;DHT22;24126;52.672;13.622;2023-12-20T14:24:51;10.60;80.40
38325;DHT22;24126;52.672;13.622;2023-12-20T14:27:19;10.60;80.30
38325;DHT22;24126;52.672;13.622;2023-12-20T14:29:50;10.50;80.20
38325;DHT22;24126;52.672;13.622;2023-12-20T14:32:17;10.50;80.30
38325;DHT22;24126;52.672;13.622;2023-12-20T14:34:44;10.50;80.30
38325;DHT22;24126;52.672;13.622;2023-12-20T14:37:11;10.50;80.40
38325;DHT22;24126;52.672;13.622;2023-12-20T14:39:38;10.50;80.30
38325;DHT22;24126;52.672;13.622;2023-12-20T14:42:07;10.50;80.10
38325;DHT22;24126;52.672;13.622;2023-12-20T14:44:37;10.50;80.20
38325;DHT22;24126;52.672;13.622;2023-12-20T14:47:04;10.50;80.10
38325;DHT22;24126;52.672;13.622;2023-12-20T14:49:32;10.50;80.30
38325;DHT22;24126;52.672;13.622;2023-12-20T14:51:59;10.50;80.30
38325;DHT22;24126;52.672;13.622;2023-12-20T14:54:26;10.50;80.10
38325;DHT22;24126;52.672;13.622;2023-12-20T14:56:53;10.50;80.00
38325;DHT22;24126;52.672;13.622;2023-12-20T14:59:21;10.40;79.80
38325;DHT22;24126;52.672;13.622;2023-12-20T15:01:48;10.40;79.70
38325;DHT22;24126;52.672;13.622;2023-12-20T15:04:16;10.40;79.70
38325;DHT22;24126;52.672;13.622;2023-12-20T15:06:43;10.40;79.80
38325;DHT22;24126;52.672;13.622;2023-12-20T15:09:10;10.30;79.80
38325;DHT22;24126;52.672;13.622;2023-12-20T15:11:38;10.30;79.70
38325;DHT22;24126;52.672;13.622;2023-12-20T15:14:05;10.30;79.60
38325;DHT22;24126;52.672;13.622;2023-12-20T15:16:34;10.30;79.80
38325;DHT22;24126;52.672;13.622;2023-12-20T15:19:01;10.20;79.60
38325;DHT22;24126;52.672;13.622;2023-12-20T15:21:33;10.20;79.50